Jack C. Davis Observatory, Carson City, Nevada Weather observations

Data are for observation ending at time listed.
 Day   Time    Ave.   Ave.  Ave.  Vector   Max.   Stn.    Total    Solar   Ave.  
  of    of     Air    Rel.  Wind   Wind    Wind   Baro.  Precip.   Rad.    Soil  
Year   Day     Temp.  Hum.  Speed  Dir.    Gust   Pres.                    Temp. 
2015   (PST)    F      %     mph   deg.    mph     mb.     in.     W/m2     F   
------------------------------------------------------------------------------
 145    0:10   52.6    75    6.0   266      8.3   845.2    0.00       0    999.0
 145    0:20   51.6    77    6.5   267      8.3   845.2    0.00       0    999.0
 145    0:30   51.7    76    4.6   286      6.5   845.1    0.00       0    999.0
 145    0:40   52.1    74    3.8   292      6.4   845.1    0.00       0    999.0
 145    0:50   52.8    72    3.4   284      6.5   845.1    0.00       0    999.0
 145    1:00   52.2    73    4.3   289      7.6   845.1    0.00       0    999.0
 145    1:10   51.2    76    3.8   276      6.9   845.1    0.00       0    999.0
 145    1:20   50.7    76    4.6   280      6.3   845.1    0.00       0    999.0
 145    1:30   51.0    75    3.8   285      6.0   845.0    0.00       0    999.0
 145    1:40   51.4    74    3.8   294      4.9   845.0    0.00       0    999.0
 145    1:50   51.3    74    3.1   276      4.3   845.0    0.00       0    999.0
 145    2:00   50.4    76    3.7   274      5.2   845.0    0.00       0    999.0
 145    2:10   50.3    77    2.6   296      4.3   845.1    0.00       0    999.0
 145    2:20   51.0    75    3.4   299      5.2   845.0    0.00       0    999.0
 145    2:30   49.9    78    2.9   298      4.3   845.0    0.00       0    999.0
 145    2:40   49.9    78    3.0   290      4.3   845.0    0.00       0    999.0
 145    2:50   49.8    78    3.7   275      6.2   845.0    0.00       0    999.0
 145    3:00   49.3    79    5.1   270      6.5   845.0    0.00       0    999.0
 145    3:10   48.6    81    3.4   278      4.8   845.0    0.00       0    999.0
 145    3:20   48.5    81    5.2   270      6.8   845.0    0.00       0    999.0
 145    3:30   48.3    80    6.1   265      7.2   845.0    0.00       0    999.0
 145    3:40   47.8    81    5.3   274      6.8   845.0    0.00       0    999.0
 145    3:50   47.5    82    4.9   276      6.0   845.0    0.00       0    999.0
 145    4:00   48.1    82    3.4   291      4.7   844.9    0.00       0    999.0
 145    4:10   48.5    80    3.1   287      4.4   844.8    0.00       0    999.0
 145    4:20   48.3    80    4.0   284      5.2   844.8    0.00       0    999.0
 145    4:30   48.3    81    4.0   292      5.6   844.9    0.00       1    999.0
 145    4:40   48.4    80    4.1   274      5.2   844.8    0.00       4    999.0
 145    4:50   47.9    81    4.6   268      5.7   844.9    0.00      10    999.0
 145    5:00   49.3    78    3.4   282      4.5   845.0    0.00      22    999.0
 145    5:10   49.6    79    3.4   284      4.3   845.1    0.00      39    999.0
 145    5:20   49.7    79    3.4   294      4.6   845.1    0.00      25    999.0
 145    5:30   49.3    80    3.6   309      4.4   845.2    0.00      23    999.0
 145    5:40   48.9    81    3.7   281      5.0   845.1    0.00      26    999.0
 145    5:50   48.6    81    3.7   247      5.5   845.2    0.00      30    999.0
 145    6:00   49.0    80    1.0   243      2.3   845.2    0.00      44    999.0
 145    6:10   51.5    75    0.0     0      0.0   845.3    0.00     176    999.0
 145    6:20   54.2    68    2.0    66      3.4   845.3    0.00     203    999.0
 145    6:30   53.4    70    2.1    72      3.5   845.4    0.00     233    999.0
 145    6:40   54.7    68    1.7    72      3.8   845.4    0.00     281    999.0
 145    6:50   55.1    67    2.7    66      4.4   845.5    0.00     329    999.0
 145    7:00   55.6    66    2.3    78      3.8   845.6    0.00     381    999.0
 145    7:10   57.2    62    2.2    64      3.9   845.7    0.00     420    999.0
 145    7:20   59.1    59    1.8    73      4.3   845.6    0.00     454    999.0
 145    7:30   59.5    58    1.9    72      4.1   845.6    0.00     485    999.0
 145    7:40   60.0    56    2.3   101      3.6   845.6    0.00     519    999.0
 145    7:50   61.0    56    2.3   101      4.6   845.6    0.00     558    999.0
 145    8:00   63.2    52    0.7    95      3.1   845.6    0.00     592    999.0
 145    8:10   67.0    45    0.8   224      2.7   845.6    0.00     623    999.0
 145    8:20   67.1    46    1.5    92      3.3   845.5    0.00     661    999.0
 145    8:30   67.2    45    1.6    97      4.8   845.5    0.00     725    999.0
 145    8:40   67.6    44    2.9   315      9.0   845.4    0.00     802    999.0
 145    8:50   67.4    44    3.7     2      8.4   845.3    0.00     910    999.0
 145    9:00   66.9    46    3.5   354      9.2   845.4    0.00     442    999.0
 145    9:10   64.9    48    4.4   333     10.8   845.3    0.00     443    999.0
 145    9:20   64.4    49    4.9   327      9.0   845.3    0.00     376    999.0
 145    9:30   64.5    48    3.6   337      8.0   845.3    0.00     410    999.0
 145    9:40   64.9    46    3.0   334      6.7   845.2    0.00     362    999.0
 145    9:50   65.3    47    2.4   338      6.4   845.2    0.00     382    999.0
 145   10:00   66.1    44    1.8   346      4.1   845.2    0.00     421    999.0
 145   10:10   67.7    39    1.8   357      4.1   845.2    0.00     689    999.0
 145   10:20   67.9    39    2.8   351      5.4   845.1    0.00     522    999.0
 145   10:30   67.4    39    2.3    25      4.9   845.0    0.00     748    999.0
 145   10:40   70.4    35    3.8   127      7.7   844.9    0.00    1191    999.0
 145   10:50   70.6    34    3.5   125      7.3   844.8    0.00    1113    999.0
 145   11:00   70.6    35    3.5    94      7.1   844.7    0.00    1044    999.0
 145   11:10   70.6    34    3.4    46      6.5   844.5    0.00    1000    999.0
 145   11:20   70.8    35    4.5    95     10.6   844.3    0.00     790    999.0
 145   11:30   69.0    35    3.3    80      6.1   844.3    0.00     218    999.0
 145   11:40   68.2    36    2.7    79      5.4   844.3    0.00     157    999.0
 145   11:50   66.2    48    6.2   306     16.0   844.5    0.06      91    999.0
 145   12:00   60.2    69    9.3   308     14.2   844.6    0.03     107    999.0
 145   12:10   59.2    72    6.3   325     10.9   844.8    0.01     188    999.0
 145   12:20   59.5    73    6.7   315     11.2   844.7    0.00     223    999.0
 145   12:30   60.7    68    5.3   330     10.6   844.6    0.00     312    999.0
 145   12:40   62.3    65    5.4   321     10.1   844.5    0.00     318    999.0
 145   12:50   62.2    61    7.2   323     12.7   844.4    0.00     191    999.0
 145   13:00   61.7    58    7.2   307     13.1   844.3    0.00     151    999.0
 145   13:10   62.5    51    6.0   277     12.5   844.4    0.00     112    999.0
 145   13:20   62.8    51    8.8   290     16.6   844.3    0.00     102    999.0
 145   13:30   62.5    50   12.0   302     23.2   844.2    0.00     397    999.0
 145   13:40   66.9    48    9.3   285     19.8   844.0    0.00    1074    999.0
 145   13:50   69.3    43   11.4   242     22.1   844.0    0.00    1022    999.0
 145   14:00   69.5    44    9.7   257     22.3   844.0    0.00     916    999.0
 145   14:10   69.0    44    9.2   263     20.0   844.1    0.00     788    999.0
 145   14:20   69.6    42    7.3   282     14.4   844.1    0.00     873    999.0
 145   14:30   68.9    42    7.0   296     19.4   844.1    0.00     631    999.0
 145   14:40   69.5    42    8.6   293     19.3   844.0    0.00     746    999.0
 145   14:50   69.7    42    9.3   264     20.1   844.0    0.00     707    999.0
 145   15:00   68.5    43   15.6   286     30.0   843.8    0.00     716    999.0
 145   15:10   69.4    42   11.3   266     24.5   843.8    0.00     854    999.0
 145   15:20   68.8    41   12.8   266     27.5   843.8    0.00     773    999.0
 145   15:30   68.5    41   13.8   258     27.0   843.8    0.00     691    999.0
 145   15:40   68.9    42   13.2   277     23.4   843.8    0.00     679    999.0
 145   15:50   68.0    41   14.0   273     23.4   844.0    0.00     536    999.0
 145   16:00   67.9    42   12.1   282     26.0   844.0    0.00     591    999.0
 145   16:10   67.1    42   10.2   297     21.2   844.2    0.00     301    999.0
 145   16:20   66.2    43    7.7   334     17.9   844.3    0.00     205    999.0
 145   16:30   65.7    44    6.4   346     16.3   844.3    0.00     325    999.0
 145   16:40   65.7    44    8.3   330     23.7   844.4    0.00     374    999.0
 145   16:50   62.7    51    8.3   349     20.2   844.5    0.00     243    999.0
 145   17:00   60.7    58    9.1   338     22.9   844.8    0.00     202    999.0
 145   17:10   60.1    60    9.9   326     20.7   844.9    0.00     214    999.0
 145   17:20   59.5    58   10.6   333     20.2   844.8    0.00     187    999.0
 145   17:30   59.2    58    8.2   339     17.3   844.7    0.00     164    999.0
 145   17:40   58.7    60    9.8   331     18.2   844.7    0.00     144    999.0
 145   17:50   58.1    61   11.2   313     18.8   844.8    0.00      91    999.0
 145   18:00   58.0    62    9.0   334     18.0   844.8    0.00      92    999.0
 145   18:10   58.1    62    6.9   337     15.4   844.8    0.00      87    999.0
 145   18:20   57.5    64    7.8   327     13.4   844.8    0.00      37    999.0
 145   18:30   57.1    64    8.1   329     16.4   844.8    0.00      24    999.0
 145   18:40   56.9    65    5.2   337     11.2   845.0    0.00      16    999.0
 145   18:50   56.5    67    4.8   350     10.7   845.1    0.00      11    999.0
 145   19:00   56.6    65    6.1   337     12.5   845.2    0.00       8    999.0
 145   19:10   56.6    63    5.4   338     13.5   845.2    0.00       5    999.0
 145   19:20   56.3    63    5.8   327     11.1   845.3    0.00       2    999.0
 145   19:30   56.0    63    4.9   336     10.4   845.5    0.00       0    999.0
 145   19:40   56.0    63    5.6   329     10.7   845.6    0.00       0    999.0
 145   19:50   55.9    62    5.7   328     10.6   845.6    0.00       0    999.0
 145   20:00   55.0    64    7.1   319     10.9   845.6    0.00       0    999.0
 145   20:10   54.7    65    5.7   320      9.3   845.7    0.00       0    999.0
 145   20:20   54.0    66    7.1   315      9.7   845.7    0.00       0    999.0
 145   20:30   54.1    65    7.7   310     11.4   845.7    0.00       0    999.0
 145   20:40   54.2    64    5.4   313      8.8   845.8    0.00       0    999.0
 145   20:50   55.8    59    5.7   283      9.3   845.9    0.00       0    999.0
 145   21:00   56.0    58    1.9   345      3.7   846.0    0.00       0    999.0
 145   21:10   54.2    64    3.6   290      4.9   846.1    0.00       0    999.0
 145   21:20   53.3    66    4.7   295      6.6   846.3    0.00       0    999.0
 145   21:30   54.7    63    6.7   296      9.8   846.3    0.00       0    999.0
 145   21:40   53.9    65    5.2   312      7.9   846.4    0.00       0    999.0
 145   21:50   51.9    70    5.2   312      7.1   846.3    0.00       0    999.0
 145   22:00   51.9    70    4.2   309      6.8   846.3    0.00       0    999.0
 145   22:10   52.5    67    3.9   309      5.1   846.3    0.00       0    999.0
 145   22:20   52.1    69    4.2   315      6.3   846.4    0.00       0    999.0
 145   22:30   51.9    70    6.1   313      9.4   846.4    0.00       0    999.0
 145   22:40   52.2    70    4.4   321      8.9   846.4    0.00       0    999.0
 145   22:50   50.9    72    5.0   318      8.7   846.4    0.00       0    999.0
 145   23:00   51.5    69    3.6   280      6.2   846.3    0.00       0    999.0
 145   23:10   51.4    70    3.7   322      7.3   846.3    0.00       0    999.0
 145   23:20   52.0    70    5.6   325      8.2   846.4    0.00       0    999.0
 145   23:30   51.5    72    6.1   323      8.7   846.4    0.00       0    999.0
 145   23:40   50.4    75    5.6   328      8.4   846.3    0.00       0    999.0
 145   23:50   50.0    76    4.6   320      6.4   846.4    0.00       0    999.0
 146    0:00   49.9    75    3.8   292      6.3   846.4    0.00       0    999.0

Return to Yerington, Nevada graphs page.


Western Regional Climate Center,wrcc@dri.edu